Weather reports worldwide

Advertisment
Dobbiaco, Italy (16033): temperature & dewpoint: 16.01.2019 04:00:00 - 22.01.2019 04:00:00 (CET)Dobbiaco, Italy (16033): wind speed: 16.01.2019 04:00:00 - 22.01.2019 04:00:00 (CET)Dobbiaco, Italy (16033): wind direction: 16.01.2019 04:00:00 - 22.01.2019 04:00:00 (CET)Dobbiaco, Italy (16033): visibility: 16.01.2019 04:00:00 - 22.01.2019 04:00:00 (CET)
Date & Time tt [°C] td [°C] ff [km/h] ff [kn] dd vv [km]
22.01.2019 04:00:00 - - - - - -
22.01.2019 03:00:00 - - - - - -
22.01.2019 02:00:00 - - - - - -
22.01.2019 01:00:00 - - - - - -
22.01.2019 00:00:00 - - - - - -
21.01.2019 23:00:00 - - - - - -
21.01.2019 22:00:00 - - - - - -
21.01.2019 21:00:00 - - - - - -
21.01.2019 20:00:00 - - - - - -
21.01.2019 19:00:00 -6,8 -10,2 8 4 SSE 12
21.01.2019 18:00:00 -6,0 -10,0 8 4 - 10
21.01.2019 17:00:00 -5,0 -10,0 9 5 - 10
21.01.2019 16:00:00 -4,4 -10,0 0 0 N 30
21.01.2019 15:00:00 -4,0 -9,0 - - - 10
21.01.2019 14:00:00 0,0 -3,0 - - - 10
21.01.2019 13:00:00 -5,7 -9,6 0 0 N 30
21.01.2019 12:00:00 -7,0 -11,0 - - - 10
21.01.2019 11:00:00 -8,0 -12,0 - - - 10
21.01.2019 10:00:00 9,5 4,5 0 0 N 30
21.01.2019 09:00:00 -10,0 -13,0 - - - 5
21.01.2019 08:00:00 -13,0 -15,0 - - - 5
21.01.2019 07:00:00 -12,8 -14,8 0 0 N 15
21.01.2019 06:00:00 - - - - - -
21.01.2019 05:00:00 - - - - - -
21.01.2019 04:00:00 - - - - - -
21.01.2019 03:00:00 - - - - - -
21.01.2019 02:00:00 - - - - - -
21.01.2019 01:00:00 - - - - - -
21.01.2019 00:00:00 - - - - - -
20.01.2019 23:00:00 - - - - - -
20.01.2019 22:00:00 - - - - - -
20.01.2019 21:00:00 - - - - - -
20.01.2019 20:00:00 - - - - - -
20.01.2019 19:00:00 -8,0 -9,9 0 0 N 15
20.01.2019 18:00:00 -7,0 -9,0 - - - 10
20.01.2019 17:00:00 -6,0 -8,0 - - - 10
20.01.2019 16:00:00 -4,0 -8,3 0 0 N 25
20.01.2019 15:00:00 -3,0 -10,0 - - - 10
20.01.2019 14:00:00 -4,0 -11,0 - - - 10
20.01.2019 13:00:00 -5,6 -10,9 0 0 N 25
20.01.2019 12:00:00 -7,0 -11,0 - - - 10
20.01.2019 11:00:00 -10,0 -12,0 - - - 10
20.01.2019 10:00:00 -10,0 -13,4 0 0 N 25
20.01.2019 09:00:00 -7,0 -13,0 - - - 10
20.01.2019 08:00:00 -11,0 -13,0 - - - 10
20.01.2019 07:00:00 -11,0 -13,5 0 0 N 8
20.01.2019 06:00:00 - - - - - -
20.01.2019 05:00:00 - - - - - -
20.01.2019 04:00:00 - - - - - -
20.01.2019 03:00:00 - - - - - -
20.01.2019 02:00:00 - - - - - -
20.01.2019 01:00:00 - - - - - -
20.01.2019 00:00:00 - - - - - -
19.01.2019 23:00:00 - - - - - -
19.01.2019 22:00:00 - - - - - -
19.01.2019 21:00:00 - - - - - -
19.01.2019 20:00:00 - - - - - -
19.01.2019 19:00:00 -4,8 -9,1 0 0 N 15
19.01.2019 18:00:00 -5,0 -10,0 - - - 10
19.01.2019 17:00:00 -4,0 -10,0 - - - 10
19.01.2019 16:00:00 -4,0 -9,4 11 6 E 25
19.01.2019 15:00:00 -4,0 -10,0 - - - 10
19.01.2019 14:00:00 -4,0 -9,0 - - - 10
19.01.2019 13:00:00 -4,6 -10,0 9 5 E 25
19.01.2019 12:00:00 -5,0 -10,0 - - - 10
19.01.2019 11:00:00 -6,0 -10,0 - - - 10
19.01.2019 10:00:00 -5,8 -9,3 0 0 N 15
19.01.2019 09:00:00 -6,0 -8,0 - - - 10
19.01.2019 08:00:00 -6,0 -9,0 - - - 10
19.01.2019 07:00:00 -6,4 -8,6 0 0 N 12
19.01.2019 06:00:00 - - - - - -
19.01.2019 05:00:00 - - - - - -
19.01.2019 04:00:00 - - - - - -
19.01.2019 03:00:00 - - - - - -
19.01.2019 02:00:00 - - - - - -
19.01.2019 01:00:00 - - - - - -
19.01.2019 00:00:00 - - - - - -
18.01.2019 23:00:00 - - - - - -
18.01.2019 22:00:00 - - - - - -
18.01.2019 21:00:00 - - - - - -
18.01.2019 20:00:00 - - - - - -
18.01.2019 19:00:00 -5,0 -8,9 0 0 N 12
18.01.2019 18:00:00 -4,0 -9,0 - - - 10
18.01.2019 17:00:00 -4,0 -8,0 - - - 10
18.01.2019 16:00:00 -3,0 -8,7 0 0 N 25
18.01.2019 15:00:00 -1,0 -11,0 - - - 10
18.01.2019 14:00:00 0,0 -12,0 - - - 10
18.01.2019 13:00:00 -0,6 -5,4 0 0 N 25
18.01.2019 12:00:00 -1,0 -6,0 - - - 10
18.01.2019 11:00:00 -2,0 -6,0 - - - 10
18.01.2019 10:00:00 -3,0 -6,3 0 0 N 20
18.01.2019 09:00:00 -2,0 -5,0 - - - 10
18.01.2019 08:00:00 -1,0 -3,0 - - - 10
18.01.2019 07:00:00 -1,2 -3,4 0 0 N 12
18.01.2019 06:00:00 - - - - - -
18.01.2019 05:00:00 - - - - - -
18.01.2019 04:00:00 - - - - - -
18.01.2019 03:00:00 - - - - - -
18.01.2019 02:00:00 - - - - - -
18.01.2019 01:00:00 - - - - - -
18.01.2019 00:00:00 - - - - - -
17.01.2019 23:00:00 - - - - - -
17.01.2019 22:00:00 - - - - - -
17.01.2019 21:00:00 - - - - - -
17.01.2019 20:00:00 - - - - - -
17.01.2019 19:00:00 1,6 0,1 0 0 N 4,0
17.01.2019 18:00:00 2,0 0,0 - - - 4,0
17.01.2019 17:00:00 2,0 -1,0 - - - 4,0
17.01.2019 16:00:00 2,2 -1,6 0 0 N 15
17.01.2019 15:00:00 2,0 -2,0 - - - 10
17.01.2019 14:00:00 2,0 -2,0 - - - 10
17.01.2019 13:00:00 1,2 -2,4 0 0 N 20
17.01.2019 12:00:00 1,0 -3,0 - - - 10
17.01.2019 11:00:00 1,0 -4,0 - - - 10
17.01.2019 10:00:00 -0,8 -4,7 0 0 N 20
17.01.2019 09:00:00 0,0 -3,0 - - - 10
17.01.2019 08:00:00 0,0 -3,0 - - - 10
17.01.2019 07:00:00 -1,8 -2,9 0 0 N 12
17.01.2019 06:00:00 - - - - - -
17.01.2019 05:00:00 - - - - - -
17.01.2019 04:00:00 - - - - - -
17.01.2019 03:00:00 - - - - - -
17.01.2019 02:00:00 - - - - - -
17.01.2019 01:00:00 - - - - - -
17.01.2019 00:00:00 - - - - - -
16.01.2019 23:00:00 - - - - - -
16.01.2019 22:00:00 - - - - - -
16.01.2019 21:00:00 - - - - - -
16.01.2019 20:00:00 - - - - - -
16.01.2019 19:00:00 -3,7 -5,4 5 3 - 12
16.01.2019 18:00:00 -4,0 -6,0 4 2 - 10
16.01.2019 17:00:00 -3,0 -5,0 2 1 - 10
16.01.2019 16:00:00 -1,4 -4,4 0 0 N 30
16.01.2019 15:00:00 -1,0 -5,0 2 1 - 10
16.01.2019 14:00:00 -1,0 -6,0 5 3 - 10
16.01.2019 13:00:00 -2,0 -6,2 5 3 - 30
16.01.2019 12:00:00 -3,0 -6,0 5 3 - 10
16.01.2019 11:00:00 -5,0 -8,0 2 1 - 10
16.01.2019 10:00:00 -6,0 -8,7 4 2 - 30
16.01.2019 09:00:00 -6,0 -7,0 2 1 - 10
16.01.2019 08:00:00 -7,0 -9,0 5 3 - 10
16.01.2019 07:00:00 -7,9 -9,3 4 2 N 15
16.01.2019 06:00:00 - - - - - -
16.01.2019 05:00:00 - - - - - -
16.01.2019 04:00:00 - - - - - -

tt = temperature
td = dewpoint
ff = wind speed
dd = wind direction
vv = visibility

Next stations